createdAt,value
2022-09-17T00:00:00.681Z,0.00
2022-09-17T00:01:00.642Z,0.00
2022-09-17T00:02:00.629Z,0.00
2022-09-17T00:03:00.614Z,0.00
2022-09-17T00:04:00.523Z,0.00
2022-09-17T00:05:00.483Z,0.00
2022-09-17T00:06:00.525Z,0.00
2022-09-17T00:07:00.402Z,0.00
2022-09-17T00:08:00.440Z,0.00
2022-09-17T00:09:00.338Z,0.00
2022-09-17T00:10:00.282Z,0.00
2022-09-17T00:11:00.242Z,0.00
2022-09-17T00:12:00.200Z,0.00
2022-09-17T00:13:00.159Z,0.00
2022-09-17T00:14:00.388Z,0.00
2022-09-17T00:15:00.084Z,0.00
2022-09-17T00:16:00.105Z,0.00
2022-09-17T00:17:01.880Z,0.00
2022-09-17T00:17:59.957Z,0.00
2022-09-17T00:18:59.932Z,0.00
2022-09-17T00:19:59.876Z,0.00
2022-09-17T00:20:59.839Z,0.00
2022-09-17T00:21:59.802Z,0.00
2022-09-17T00:22:59.763Z,0.00
2022-09-17T00:23:59.798Z,0.00
2022-09-17T00:24:59.693Z,0.00
2022-09-17T00:25:59.643Z,0.00
2022-09-17T00:26:59.597Z,0.00
2022-09-17T00:27:59.558Z,0.00
2022-09-17T00:28:59.616Z,0.00
2022-09-17T00:29:59.474Z,0.00
2022-09-17T00:30:59.477Z,0.00
2022-09-17T00:31:59.396Z,0.00
2022-09-17T00:32:59.355Z,0.00
2022-09-17T00:33:59.314Z,0.00
2022-09-17T00:34:59.286Z,0.00
2022-09-17T00:35:59.238Z,0.00
2022-09-17T00:36:59.195Z,0.00
2022-09-17T00:37:59.153Z,0.00
2022-09-17T00:38:59.114Z,0.00
2022-09-17T00:39:59.274Z,0.00
2022-09-17T00:40:59.048Z,0.00
2022-09-17T00:41:58.996Z,0.00
2022-09-17T00:42:58.958Z,0.00
2022-09-17T00:43:59.026Z,0.00
2022-09-17T00:44:58.873Z,0.00
2022-09-17T00:45:58.834Z,0.00
2022-09-17T00:46:58.847Z,0.00
2022-09-17T00:47:58.751Z,0.00
2022-09-17T00:48:58.713Z,0.00
2022-09-17T00:49:58.671Z,0.00
2022-09-17T00:50:58.633Z,0.00
2022-09-17T00:52:00.667Z,0.00
2022-09-17T00:52:58.556Z,0.00
2022-09-17T00:53:58.512Z,0.00
2022-09-17T00:54:58.474Z,0.00
2022-09-17T00:55:58.518Z,0.00
2022-09-17T00:56:58.404Z,0.00
2022-09-17T00:57:58.351Z,0.00
2022-09-17T00:58:58.393Z,0.00
2022-09-17T00:59:58.273Z,0.00
2022-09-17T01:00:58.256Z,0.00
2022-09-17T01:01:58.260Z,0.00
2022-09-17T01:02:58.164Z,0.00
2022-09-17T01:03:58.114Z,0.00
2022-09-17T01:04:58.071Z,0.00
2022-09-17T01:05:58.030Z,0.00
2022-09-17T01:06:57.997Z,0.00
2022-09-17T01:07:57.947Z,0.00
2022-09-17T01:08:57.926Z,0.00
2022-09-17T01:09:57.882Z,0.00
2022-09-17T01:10:57.830Z,0.00
2022-09-17T01:11:57.867Z,0.00
2022-09-17T01:12:57.750Z,0.00
2022-09-17T01:13:57.724Z,0.00
2022-09-17T01:14:57.681Z,0.00
2022-09-17T01:15:57.653Z,0.00
2022-09-17T01:16:57.596Z,0.00
2022-09-17T01:17:57.544Z,0.00
2022-09-17T01:18:57.508Z,0.00
2022-09-17T01:19:57.465Z,0.00
2022-09-17T01:20:57.436Z,0.00
2022-09-17T01:21:57.384Z,0.00
2022-09-17T01:22:57.345Z,0.00
2022-09-17T01:23:57.302Z,0.00
2022-09-17T01:24:57.262Z,0.00
2022-09-17T01:25:57.235Z,0.00
2022-09-17T01:26:57.183Z,0.00
2022-09-17T01:27:57.225Z,0.00
2022-09-17T01:28:57.103Z,0.00
2022-09-17T01:29:57.059Z,0.00
2022-09-17T01:30:57.084Z,0.00
2022-09-17T01:31:56.980Z,0.00
2022-09-17T01:32:56.940Z,0.00
2022-09-17T01:33:56.901Z,0.00
2022-09-17T01:34:56.858Z,0.00
2022-09-17T01:35:56.818Z,0.00
2022-09-17T01:36:56.788Z,0.00
2022-09-17T01:37:56.751Z,0.00
2022-09-17T01:38:56.701Z,0.00
2022-09-17T01:39:56.693Z,0.00
2022-09-17T01:40:56.620Z,0.00
2022-09-17T01:41:56.575Z,0.00
2022-09-17T01:42:56.535Z,0.00
2022-09-17T01:43:56.587Z,0.00
2022-09-17T01:44:56.458Z,0.00
2022-09-17T01:45:56.414Z,0.00
2022-09-17T01:46:56.428Z,0.00
2022-09-17T01:47:56.335Z,0.00
2022-09-17T01:48:56.298Z,0.00
2022-09-17T01:49:56.271Z,0.00
2022-09-17T01:50:56.213Z,0.00
2022-09-17T01:51:56.178Z,0.00
2022-09-17T01:52:56.131Z,0.00
2022-09-17T01:53:56.093Z,0.00
2022-09-17T01:54:56.051Z,0.00
2022-09-17T01:55:56.024Z,0.00
2022-09-17T01:56:55.975Z,0.00
2022-09-17T01:57:55.935Z,0.00
2022-09-17T01:58:55.889Z,0.00
2022-09-17T01:59:55.927Z,0.00
2022-09-17T02:00:55.918Z,0.00
2022-09-17T02:01:55.824Z,0.00
2022-09-17T02:02:55.729Z,0.00
2022-09-17T02:03:55.722Z,0.00
2022-09-17T02:04:55.653Z,0.00
2022-09-17T02:06:02.684Z,0.00
2022-09-17T02:06:55.566Z,0.00
2022-09-17T02:07:55.523Z,0.00
2022-09-17T02:08:55.483Z,0.00
2022-09-17T02:09:55.444Z,0.00
2022-09-17T02:10:55.404Z,0.00
2022-09-17T02:11:55.373Z,0.00
2022-09-17T02:12:55.323Z,0.00
2022-09-17T02:13:55.280Z,0.00
2022-09-17T02:14:55.242Z,0.00
2022-09-17T02:15:55.308Z,0.00
2022-09-17T02:16:55.171Z,0.00
2022-09-17T02:17:55.128Z,0.00
2022-09-17T02:18:55.085Z,0.00
2022-09-17T02:19:55.035Z,0.00
2022-09-17T02:20:54.999Z,0.00
2022-09-17T02:21:54.957Z,0.00
2022-09-17T02:22:54.931Z,0.00
2022-09-17T02:23:54.875Z,0.00
2022-09-17T02:24:54.836Z,0.00
2022-09-17T02:25:54.796Z,0.00
2022-09-17T02:26:54.755Z,0.00
2022-09-17T02:27:54.713Z,0.00
2022-09-17T02:28:54.689Z,0.00
2022-09-17T02:29:54.634Z,0.00
2022-09-17T02:30:54.599Z,0.00
2022-09-17T02:31:54.629Z,0.00
2022-09-17T02:32:54.514Z,0.00
2022-09-17T02:33:54.469Z,0.00
2022-09-17T02:34:54.446Z,0.00
2022-09-17T02:35:54.392Z,0.00
2022-09-17T02:36:54.349Z,0.00
2022-09-17T02:37:54.308Z,0.00
2022-09-17T02:38:54.270Z,0.00
2022-09-17T02:39:54.262Z,0.00
2022-09-17T02:40:54.200Z,0.00
2022-09-17T02:41:54.147Z,0.00
2022-09-17T02:42:54.108Z,0.00
2022-09-17T02:43:54.071Z,0.00
2022-09-17T02:44:54.027Z,0.00
2022-09-17T02:45:53.986Z,0.00
2022-09-17T02:46:54.002Z,0.00
2022-09-17T02:47:53.990Z,0.00
2022-09-17T02:48:53.868Z,0.00
2022-09-17T02:49:53.824Z,0.00
2022-09-17T02:50:53.788Z,0.00
2022-09-17T02:51:53.743Z,0.00
2022-09-17T02:52:53.724Z,0.00
2022-09-17T02:53:53.675Z,0.00
2022-09-17T02:54:53.625Z,0.00
2022-09-17T02:55:53.584Z,0.00
2022-09-17T02:56:53.546Z,0.00
2022-09-17T02:57:53.505Z,0.00
2022-09-17T02:58:53.464Z,0.00
2022-09-17T02:59:53.435Z,0.00
2022-09-17T03:00:53.436Z,0.00
2022-09-17T03:01:53.378Z,0.00
2022-09-17T03:02:53.306Z,0.00
2022-09-17T03:03:53.338Z,0.00
2022-09-17T03:04:53.223Z,0.00
2022-09-17T03:05:53.189Z,0.00
2022-09-17T03:06:53.139Z,0.00
2022-09-17T03:07:53.099Z,0.00
2022-09-17T03:08:53.058Z,0.00
2022-09-17T03:09:53.020Z,0.00
2022-09-17T03:10:52.979Z,0.00
2022-09-17T03:11:52.948Z,0.00
2022-09-17T03:12:52.898Z,0.00
2022-09-17T03:13:52.859Z,0.00
2022-09-17T03:14:52.823Z,0.00
2022-09-17T03:15:52.836Z,0.00
2022-09-17T03:16:52.741Z,0.00
2022-09-17T03:17:53.488Z,0.00
2022-09-17T03:18:52.656Z,0.00
2022-09-17T03:19:52.691Z,0.00
2022-09-17T03:20:52.575Z,0.00
2022-09-17T03:21:52.534Z,0.00
2022-09-17T03:22:52.495Z,0.00
2022-09-17T03:23:52.477Z,0.00
2022-09-17T03:24:52.413Z,0.00
2022-09-17T03:25:52.372Z,0.00
2022-09-17T03:26:52.334Z,0.00
2022-09-17T03:27:52.291Z,0.00
2022-09-17T03:28:52.254Z,0.00
2022-09-17T03:29:52.232Z,0.00
2022-09-17T03:30:52.170Z,0.00
2022-09-17T03:31:52.129Z,0.00
2022-09-17T03:32:52.089Z,0.00
2022-09-17T03:33:52.049Z,0.00
2022-09-17T03:34:52.008Z,0.00
2022-09-17T03:35:52.077Z,0.00
2022-09-17T03:36:51.932Z,0.00
2022-09-17T03:37:51.888Z,0.00
2022-09-17T03:38:51.847Z,0.00
2022-09-17T03:39:51.833Z,0.00
2022-09-17T03:40:51.763Z,0.00
2022-09-17T03:41:51.737Z,0.00
2022-09-17T03:42:51.685Z,0.00
2022-09-17T03:43:51.649Z,0.00
2022-09-17T03:44:51.603Z,0.00
2022-09-17T03:45:51.564Z,0.00
2022-09-17T03:46:51.614Z,0.00
2022-09-17T03:47:51.493Z,0.00
2022-09-17T03:48:51.447Z,0.00
2022-09-17T03:49:51.405Z,0.00
2022-09-17T03:50:51.362Z,0.00
2022-09-17T03:51:51.402Z,0.00
2022-09-17T03:52:51.286Z,0.00
2022-09-17T03:53:51.251Z,0.00
2022-09-17T03:54:51.200Z,0.00
2022-09-17T03:55:51.161Z,0.00
2022-09-17T03:56:51.118Z,0.00
2022-09-17T03:57:51.079Z,0.00
2022-09-17T03:58:51.037Z,0.00
2022-09-17T03:59:51.011Z,0.00
2022-09-17T04:00:50.960Z,0.00
2022-09-17T04:01:51.078Z,0.00
2022-09-17T04:02:50.952Z,0.00
2022-09-17T04:03:50.837Z,0.00
2022-09-17T04:04:50.826Z,0.00
2022-09-17T04:05:50.758Z,0.00
2022-09-17T04:06:50.722Z,0.00
2022-09-17T04:07:50.760Z,0.00
2022-09-17T04:08:50.640Z,0.00
2022-09-17T04:09:50.609Z,0.00
2022-09-17T04:10:50.553Z,0.00
2022-09-17T04:11:50.520Z,0.00
2022-09-17T04:12:50.473Z,0.00
2022-09-17T04:13:50.435Z,0.00
2022-09-17T04:14:50.395Z,0.00
2022-09-17T04:15:50.410Z,0.00
2022-09-17T04:16:50.309Z,0.00
2022-09-17T04:17:50.271Z,0.00
2022-09-17T04:18:50.231Z,0.00
2022-09-17T04:19:50.190Z,0.00
2022-09-17T04:20:50.149Z,0.00
2022-09-17T04:21:50.123Z,0.00
2022-09-17T04:22:50.069Z,0.00
2022-09-17T04:23:50.112Z,0.00
2022-09-17T04:24:49.989Z,0.00
2022-09-17T04:25:49.950Z,0.00
2022-09-17T04:26:49.908Z,0.00
2022-09-17T04:27:49.881Z,0.00
2022-09-17T04:28:49.827Z,0.00
2022-09-17T04:29:49.790Z,0.00
2022-09-17T04:30:49.746Z,0.00
2022-09-17T04:31:49.707Z,0.00
2022-09-17T04:32:49.665Z,0.00
2022-09-17T04:33:49.638Z,0.00
2022-09-17T04:34:49.584Z,0.00
2022-09-17T04:35:49.546Z,0.00
2022-09-17T04:36:49.511Z,0.00
2022-09-17T04:37:49.464Z,0.00
2022-09-17T04:38:49.424Z,0.00
2022-09-17T04:39:49.552Z,4.00
2022-09-17T04:40:49.344Z,0.00
2022-09-17T04:41:49.304Z,4.00
2022-09-17T04:42:49.262Z,4.00
2022-09-17T04:43:49.240Z,4.00
2022-09-17T04:44:49.181Z,8.00
2022-09-17T04:45:49.158Z,8.00
2022-09-17T04:46:49.138Z,8.00
2022-09-17T04:47:49.060Z,12.00
2022-09-17T04:48:49.019Z,12.00
2022-09-17T04:49:48.985Z,16.00
2022-09-17T04:50:48.941Z,20.00
2022-09-17T04:51:48.910Z,24.00
2022-09-17T04:52:48.856Z,28.00
2022-09-17T04:53:48.819Z,32.00
2022-09-17T04:54:48.777Z,36.00
2022-09-17T04:55:48.814Z,40.00
2022-09-17T04:56:48.707Z,48.00
2022-09-17T04:57:48.663Z,56.00
2022-09-17T04:58:48.670Z,64.00
2022-09-17T04:59:48.577Z,76.00
2022-09-17T05:00:48.647Z,88.00
2022-09-17T05:01:48.551Z,100.00
2022-09-17T05:02:48.464Z,112.00
2022-09-17T05:03:48.425Z,132.00
2022-09-17T05:04:48.371Z,148.00
2022-09-17T05:05:48.330Z,164.00
2022-09-17T05:06:48.289Z,180.00
2022-09-17T05:07:48.257Z,196.00
2022-09-17T05:08:48.209Z,212.00
2022-09-17T05:09:48.180Z,232.00
2022-09-17T05:10:48.129Z,244.00
2022-09-17T05:11:48.173Z,268.00
2022-09-17T05:12:48.045Z,288.00
2022-09-17T05:13:48.021Z,324.00
2022-09-17T05:14:47.969Z,372.00
2022-09-17T05:15:47.956Z,420.00
2022-09-17T05:16:47.884Z,452.00
2022-09-17T05:17:47.854Z,484.00
2022-09-17T05:18:47.819Z,532.00
2022-09-17T05:19:47.763Z,596.00
2022-09-17T05:20:47.720Z,672.00
2022-09-17T05:21:47.682Z,748.00
2022-09-17T05:22:47.642Z,832.00
2022-09-17T05:23:47.600Z,912.00
2022-09-17T05:24:47.569Z,1000.00
2022-09-17T05:25:47.522Z,1088.00
2022-09-17T05:26:47.481Z,1176.00
2022-09-17T05:27:47.518Z,1260.00
2022-09-17T05:28:47.406Z,1348.00
2022-09-17T05:29:47.356Z,1420.00
2022-09-17T05:30:47.319Z,1496.00
2022-09-17T05:31:47.337Z,1568.00
2022-09-17T05:32:47.264Z,1648.00
2022-09-17T05:33:47.200Z,1736.00
2022-09-17T05:34:47.164Z,1836.00
2022-09-17T05:35:47.123Z,1920.00
2022-09-17T05:36:47.071Z,2008.00
2022-09-17T05:37:47.031Z,2124.00
2022-09-17T05:38:47.034Z,2328.00
2022-09-17T05:39:46.951Z,2520.00
2022-09-17T05:40:46.937Z,2636.00
2022-09-17T05:41:46.871Z,2796.00
2022-09-17T05:42:46.829Z,2936.00
2022-09-17T05:43:46.869Z,3052.00
2022-09-17T05:44:46.752Z,3260.00
2022-09-17T05:45:46.709Z,3596.00
2022-09-17T05:46:46.710Z,3896.00
2022-09-17T05:47:46.633Z,3868.00
2022-09-17T05:48:46.587Z,3780.00
2022-09-17T05:49:46.548Z,3680.00
2022-09-17T05:50:46.506Z,3820.00
2022-09-17T05:51:46.466Z,3900.00
2022-09-17T05:52:46.442Z,4048.00
2022-09-17T05:53:46.454Z,4388.00
2022-09-17T05:54:46.345Z,4392.00
2022-09-17T05:55:46.304Z,3652.00
2022-09-17T05:56:46.265Z,2676.00
2022-09-17T05:57:46.235Z,2412.00
2022-09-17T05:58:46.184Z,2612.00
2022-09-17T05:59:46.236Z,2928.00
2022-09-17T06:00:46.106Z,3268.00
2022-09-17T06:01:46.143Z,3688.00
2022-09-17T06:02:46.091Z,4088.00
2022-09-17T06:03:46.120Z,4340.00
2022-09-17T06:04:45.946Z,4464.00
2022-09-17T06:05:45.928Z,4592.00
2022-09-17T06:06:45.866Z,4516.00
2022-09-17T06:07:45.828Z,4416.00
2022-09-17T06:08:45.896Z,4436.00
2022-09-17T06:09:45.745Z,4448.00
2022-09-17T06:10:45.706Z,4516.00
2022-09-17T06:11:45.679Z,4644.00
2022-09-17T06:12:45.639Z,4864.00
2022-09-17T06:13:45.588Z,5200.00
2022-09-17T06:14:45.548Z,5680.00
2022-09-17T06:15:45.593Z,5956.00
2022-09-17T06:16:45.530Z,5768.00
2022-09-17T06:17:45.430Z,5172.00
2022-09-17T06:18:45.401Z,4128.00
2022-09-17T06:19:45.349Z,3724.00
2022-09-17T06:20:45.309Z,3400.00
2022-09-17T06:21:45.273Z,3320.00
2022-09-17T06:22:45.230Z,3560.00
2022-09-17T06:23:45.193Z,4104.00
2022-09-17T06:24:45.160Z,2936.00
2022-09-17T06:25:45.115Z,1812.00
2022-09-17T06:26:45.073Z,1796.00
2022-09-17T06:27:45.036Z,1820.00
2022-09-17T06:28:44.994Z,1784.00
2022-09-17T06:29:44.960Z,1844.00
2022-09-17T06:30:44.927Z,1976.00
2022-09-17T06:31:45.124Z,2012.00
2022-09-17T06:32:44.847Z,2076.00
2022-09-17T06:33:44.798Z,2176.00
2022-09-17T06:34:44.757Z,2288.00
2022-09-17T06:35:44.718Z,2400.00
2022-09-17T06:36:44.679Z,2628.00
2022-09-17T06:37:44.642Z,2640.00
2022-09-17T06:38:44.616Z,2516.00
2022-09-17T06:39:44.559Z,2420.00
2022-09-17T06:40:44.520Z,2428.00
2022-09-17T06:41:44.486Z,2512.00
2022-09-17T06:42:44.439Z,2628.00
2022-09-17T06:43:44.399Z,2756.00
2022-09-17T06:44:44.372Z,2888.00
2022-09-17T06:45:44.325Z,3012.00
2022-09-17T06:46:44.371Z,3200.00
2022-09-17T06:47:44.321Z,3392.00
2022-09-17T06:48:44.203Z,3712.00
2022-09-17T06:49:44.164Z,4316.00
2022-09-17T06:50:44.151Z,4604.00
2022-09-17T06:51:44.082Z,6688.00
2022-09-17T06:52:44.043Z,5316.00
2022-09-17T06:53:44.002Z,5380.00
2022-09-17T06:54:43.961Z,5292.00
2022-09-17T06:55:43.923Z,5820.00
2022-09-17T06:56:43.895Z,7628.00
2022-09-17T06:57:43.843Z,6828.00
2022-09-17T06:58:43.820Z,5224.00
2022-09-17T06:59:43.763Z,4516.00
2022-09-17T07:00:43.747Z,4412.00
2022-09-17T07:01:43.719Z,4208.00
2022-09-17T07:02:43.680Z,3920.00
2022-09-17T07:03:43.687Z,3824.00
2022-09-17T07:04:43.566Z,4252.00
2022-09-17T07:05:43.526Z,5708.00
2022-09-17T07:06:43.485Z,4800.00
2022-09-17T07:07:43.452Z,4796.00
2022-09-17T07:08:43.418Z,4884.00
2022-09-17T07:09:43.366Z,4976.00
2022-09-17T07:10:43.329Z,5520.00
2022-09-17T07:11:43.288Z,5584.00
2022-09-17T07:12:47.841Z,5736.00
2022-09-17T07:13:43.209Z,5936.00
2022-09-17T07:14:43.185Z,6548.00
2022-09-17T07:15:43.166Z,7064.00
2022-09-17T07:16:43.091Z,7780.00
2022-09-17T07:17:43.054Z,13392.00
2022-09-17T07:18:43.025Z,8608.00
2022-09-17T07:19:43.059Z,9616.00
2022-09-17T07:20:42.932Z,9668.00
2022-09-17T07:21:42.896Z,13884.00
2022-09-17T07:22:42.853Z,19296.00
2022-09-17T07:23:42.814Z,10656.00
2022-09-17T07:24:42.789Z,13456.00
2022-09-17T07:25:42.738Z,18176.00
2022-09-17T07:26:42.722Z,18016.00
2022-09-17T07:27:42.665Z,18080.00
2022-09-17T07:28:42.621Z,17728.00
2022-09-17T07:29:42.585Z,17664.00
2022-09-17T07:30:42.548Z,17632.00
2022-09-17T07:31:42.547Z,17632.00
2022-09-17T07:32:42.483Z,17600.00
2022-09-17T07:33:42.470Z,17984.00
2022-09-17T07:34:42.401Z,18624.00
2022-09-17T07:35:42.439Z,18944.00
2022-09-17T07:36:42.329Z,18912.00
2022-09-17T07:37:42.286Z,18656.00
2022-09-17T07:38:42.253Z,18336.00
2022-09-17T07:39:42.229Z,18144.00
2022-09-17T07:40:42.181Z,18048.00
2022-09-17T07:41:42.144Z,17984.00
2022-09-17T07:42:42.107Z,18272.00
2022-09-17T07:43:42.071Z,18400.00
2022-09-17T07:44:42.038Z,18368.00
2022-09-17T07:45:42.011Z,18336.00
2022-09-17T07:46:42.167Z,18336.00
2022-09-17T07:47:41.950Z,18400.00
2022-09-17T07:48:41.922Z,18624.00
2022-09-17T07:49:41.861Z,19136.00
2022-09-17T07:50:41.826Z,14828.00
2022-09-17T07:51:41.887Z,21504.00
2022-09-17T07:52:41.755Z,14316.00
2022-09-17T07:53:41.723Z,10000.00
2022-09-17T07:54:41.688Z,13268.00
2022-09-17T07:55:41.657Z,18208.00
2022-09-17T07:56:41.633Z,12976.00
2022-09-17T07:57:41.586Z,13288.00
2022-09-17T07:58:41.551Z,12688.00
2022-09-17T07:59:41.516Z,12504.00
2022-09-17T08:00:41.482Z,14036.00
2022-09-17T08:01:41.537Z,10124.00
2022-09-17T08:02:41.547Z,19232.00
2022-09-17T08:03:41.389Z,19200.00
2022-09-17T08:04:41.342Z,19456.00
2022-09-17T08:05:41.309Z,20192.00
2022-09-17T08:06:41.275Z,20640.00
2022-09-17T08:07:41.325Z,20704.00
2022-09-17T08:08:41.211Z,16576.00
2022-09-17T08:09:41.186Z,13496.00
2022-09-17T08:10:41.141Z,7364.00
2022-09-17T08:11:56.998Z,20288.00
2022-09-17T08:12:41.089Z,21440.00
2022-09-17T08:13:41.037Z,25920.00
2022-09-17T08:14:41.013Z,25920.00
2022-09-17T08:15:40.969Z,18880.00
2022-09-17T08:16:40.945Z,17280.00
2022-09-17T08:17:40.903Z,25536.00
2022-09-17T08:18:40.870Z,22816.00
2022-09-17T08:19:40.839Z,8812.00
2022-09-17T08:20:40.813Z,8428.00
2022-09-17T08:21:40.771Z,19360.00
2022-09-17T08:22:40.735Z,11184.00
2022-09-17T08:23:40.786Z,11176.00
2022-09-17T08:24:40.669Z,26176.00
2022-09-17T08:25:40.633Z,19584.00
2022-09-17T08:26:40.624Z,12744.00
2022-09-17T08:27:40.567Z,15576.00
2022-09-17T08:28:40.543Z,23552.00
2022-09-17T08:29:40.501Z,23072.00
2022-09-17T08:30:40.466Z,24352.00
2022-09-17T08:31:40.526Z,10784.00
2022-09-17T08:32:40.398Z,15364.00
2022-09-17T08:33:40.370Z,13996.00
2022-09-17T08:34:40.345Z,14808.00
2022-09-17T08:35:40.295Z,25568.00
2022-09-17T08:36:40.266Z,19936.00
2022-09-17T08:37:40.242Z,8848.00
2022-09-17T08:38:40.209Z,21792.00
2022-09-17T08:39:40.242Z,22304.00
2022-09-17T08:40:40.203Z,22208.00
2022-09-17T08:41:40.095Z,22784.00
2022-09-17T08:42:40.061Z,22048.00
2022-09-17T08:43:40.027Z,20384.00
2022-09-17T08:44:40.008Z,14284.00
2022-09-17T08:45:39.961Z,21728.00
2022-09-17T08:46:39.952Z,25632.00
2022-09-17T08:47:39.892Z,24224.00
2022-09-17T08:48:39.861Z,13076.00
2022-09-17T08:49:39.827Z,11284.00
2022-09-17T08:50:39.809Z,10656.00
2022-09-17T08:51:39.758Z,10460.00
2022-09-17T08:52:39.731Z,14516.00
2022-09-17T08:53:39.693Z,22624.00
2022-09-17T08:54:39.661Z,23392.00
2022-09-17T08:55:39.705Z,24128.00
2022-09-17T08:56:39.605Z,12708.00
2022-09-17T08:57:39.557Z,24416.00
2022-09-17T08:58:39.528Z,22656.00
2022-09-17T08:59:39.491Z,16180.00
2022-09-17T09:00:39.456Z,12676.00
2022-09-17T09:01:39.512Z,22368.00
2022-09-17T09:02:39.500Z,11572.00
2022-09-17T09:03:39.363Z,12244.00
2022-09-17T09:04:39.323Z,14204.00
2022-09-17T09:05:39.289Z,18240.00
2022-09-17T09:06:39.262Z,25856.00
2022-09-17T09:07:39.218Z,21088.00
2022-09-17T09:08:39.202Z,10316.00
2022-09-17T09:09:39.159Z,11896.00
2022-09-17T09:10:39.122Z,12484.00
2022-09-17T09:11:39.172Z,19936.00
2022-09-17T09:12:39.053Z,16012.00
2022-09-17T09:13:39.019Z,26016.00
2022-09-17T09:14:39.002Z,12244.00
2022-09-17T09:15:38.952Z,10944.00
2022-09-17T09:16:38.954Z,14320.00
2022-09-17T09:17:38.884Z,25824.00
2022-09-17T09:18:38.851Z,14888.00
2022-09-17T09:19:38.820Z,11716.00
2022-09-17T09:20:38.798Z,20608.00
2022-09-17T09:21:38.749Z,11004.00
2022-09-17T09:22:38.717Z,14844.00
2022-09-17T09:23:38.681Z,26496.00
2022-09-17T09:24:38.650Z,16192.00
2022-09-17T09:25:38.614Z,11664.00
2022-09-17T09:26:38.596Z,20064.00
2022-09-17T09:27:38.624Z,20192.00
2022-09-17T09:28:38.518Z,23008.00
2022-09-17T09:29:38.479Z,25344.00
2022-09-17T09:30:38.446Z,15768.00
2022-09-17T09:31:38.442Z,13964.00
2022-09-17T09:32:38.391Z,12100.00
2022-09-17T09:33:38.347Z,12912.00
2022-09-17T09:34:38.313Z,17440.00
2022-09-17T09:35:38.278Z,26240.00
2022-09-17T09:36:38.247Z,20320.00
2022-09-17T09:37:38.213Z,23744.00
2022-09-17T09:38:38.191Z,10284.00
2022-09-17T09:39:42.573Z,21952.00
2022-09-17T09:40:38.155Z,13276.00
2022-09-17T09:41:38.079Z,16352.00
2022-09-17T09:42:38.050Z,12864.00
2022-09-17T09:44:02.217Z,14656.00
2022-09-17T09:44:37.994Z,27712.00
2022-09-17T09:45:37.947Z,27520.00
2022-09-17T09:46:37.953Z,17280.00
2022-09-17T09:47:37.883Z,29408.00
2022-09-17T09:48:37.848Z,23360.00
2022-09-17T09:49:37.814Z,29856.00
2022-09-17T09:51:01.944Z,16208.00
2022-09-17T09:51:37.756Z,23680.00
2022-09-17T09:52:37.715Z,9440.00
2022-09-17T09:53:37.683Z,11208.00
2022-09-17T09:54:37.651Z,16236.00
2022-09-17T09:55:37.621Z,20992.00
2022-09-17T09:56:37.593Z,23136.00
2022-09-17T09:57:37.550Z,18208.00
2022-09-17T09:58:37.520Z,20000.00
2022-09-17T09:59:37.565Z,17568.00
2022-09-17T10:00:37.462Z,13428.00
2022-09-17T10:01:37.512Z,19840.00
2022-09-17T10:02:37.484Z,13200.00
2022-09-17T10:03:37.351Z,15372.00
2022-09-17T10:04:37.322Z,15800.00
2022-09-17T10:05:37.284Z,15452.00
2022-09-17T10:06:37.250Z,11292.00
2022-09-17T10:07:37.215Z,11648.00
2022-09-17T10:08:37.198Z,13884.00
2022-09-17T10:09:37.161Z,15472.00
2022-09-17T10:10:37.119Z,18560.00
2022-09-17T10:11:37.118Z,19968.00
2022-09-17T10:12:37.054Z,20992.00
2022-09-17T10:13:37.026Z,11972.00
2022-09-17T10:14:36.984Z,10292.00
2022-09-17T10:15:37.033Z,10248.00
2022-09-17T10:16:36.960Z,9020.00
2022-09-17T10:17:36.878Z,6932.00
2022-09-17T10:18:36.848Z,5724.00
2022-09-17T10:19:36.821Z,5468.00
2022-09-17T10:20:36.774Z,5404.00
2022-09-17T10:21:36.738Z,6188.00
2022-09-17T10:22:36.706Z,8080.00
2022-09-17T10:23:36.671Z,7872.00
2022-09-17T10:24:36.635Z,7280.00
2022-09-17T10:25:36.608Z,18240.00
2022-09-17T10:26:36.563Z,16928.00
2022-09-17T10:27:36.530Z,19936.00
2022-09-17T10:28:36.490Z,21760.00
2022-09-17T10:29:36.455Z,24064.00
2022-09-17T10:30:36.423Z,14944.00
2022-09-17T10:31:36.517Z,11284.00
2022-09-17T10:32:36.351Z,9412.00
2022-09-17T10:33:36.320Z,9300.00
2022-09-17T10:34:36.281Z,10780.00
2022-09-17T10:35:36.259Z,12888.00
2022-09-17T10:36:38.021Z,15888.00
2022-09-17T10:37:36.172Z,24608.00
2022-09-17T10:38:36.140Z,25248.00
2022-09-17T10:39:36.103Z,23904.00
2022-09-17T10:40:36.111Z,23808.00
2022-09-17T10:41:36.043Z,15316.00
2022-09-17T10:42:35.999Z,24000.00
2022-09-17T10:43:35.961Z,12896.00
2022-09-17T10:44:35.939Z,25280.00
2022-09-17T10:45:35.906Z,19040.00
2022-09-17T10:46:35.879Z,24512.00
2022-09-17T10:47:35.906Z,28224.00
2022-09-17T10:48:35.807Z,30272.00
2022-09-17T10:49:35.758Z,21696.00
2022-09-17T10:50:35.721Z,22912.00
2022-09-17T10:51:35.686Z,18400.00
2022-09-17T10:52:35.657Z,15536.00
2022-09-17T10:53:35.622Z,13500.00
2022-09-17T10:54:35.601Z,11760.00
2022-09-17T10:55:35.554Z,20320.00
2022-09-17T10:56:35.520Z,21376.00
2022-09-17T10:57:35.488Z,25664.00
2022-09-17T10:58:38.120Z,23424.00
2022-09-17T10:59:35.421Z,20992.00
2022-09-17T11:00:35.391Z,32512.00
2022-09-17T11:01:35.427Z,22208.00
2022-09-17T11:02:35.374Z,20256.00
2022-09-17T11:03:35.383Z,17760.00
2022-09-17T11:04:35.261Z,12800.00
2022-09-17T11:05:35.220Z,9908.00
2022-09-17T11:06:35.189Z,9916.00
2022-09-17T11:07:35.157Z,11764.00
2022-09-17T11:08:35.122Z,21696.00
2022-09-17T11:09:35.122Z,13736.00
2022-09-17T11:10:35.054Z,20608.00
2022-09-17T11:11:35.019Z,23328.00
2022-09-17T11:12:34.987Z,22464.00
2022-09-17T11:13:34.952Z,9752.00
2022-09-17T11:14:34.919Z,10956.00
2022-09-17T11:15:34.895Z,17120.00
2022-09-17T11:16:34.909Z,16992.00
2022-09-17T11:17:34.815Z,13504.00
2022-09-17T11:18:34.783Z,11272.00
2022-09-17T11:19:34.831Z,10240.00
2022-09-17T11:20:34.729Z,9132.00
2022-09-17T11:21:34.679Z,7448.00
2022-09-17T11:22:34.647Z,6376.00
2022-09-17T11:23:34.610Z,6936.00
2022-09-17T11:24:34.576Z,9804.00
2022-09-17T11:25:34.544Z,10752.00
2022-09-17T11:26:34.519Z,9468.00
2022-09-17T11:27:34.472Z,22144.00
2022-09-17T11:28:34.439Z,11024.00
2022-09-17T11:29:34.415Z,11336.00
2022-09-17T11:30:34.369Z,10996.00
2022-09-17T11:31:34.406Z,10640.00
2022-09-17T11:32:34.303Z,11292.00
2022-09-17T11:33:34.263Z,11452.00
2022-09-17T11:34:34.228Z,11700.00
2022-09-17T11:35:34.268Z,13372.00
2022-09-17T11:36:34.170Z,17632.00
2022-09-17T11:37:34.137Z,15164.00
2022-09-17T11:38:34.093Z,14248.00
2022-09-17T11:39:34.050Z,22272.00
2022-09-17T11:40:34.146Z,14356.00
2022-09-17T11:41:33.983Z,17280.00
2022-09-17T11:42:33.947Z,19328.00
2022-09-17T11:43:33.921Z,24384.00
2022-09-17T11:44:33.876Z,23744.00
2022-09-17T11:45:33.874Z,23520.00
2022-09-17T11:46:33.840Z,23680.00
2022-09-17T11:47:33.768Z,24384.00
2022-09-17T11:48:33.737Z,25664.00
2022-09-17T11:49:33.714Z,27872.00
2022-09-17T11:50:33.667Z,31168.00
2022-09-17T11:51:33.710Z,31840.00
2022-09-17T11:52:33.597Z,25088.00
2022-09-17T11:53:33.563Z,20736.00
2022-09-17T11:54:33.532Z,14988.00
2022-09-17T11:55:33.525Z,12292.00
2022-09-17T11:56:33.465Z,11636.00
2022-09-17T11:57:33.429Z,11520.00
2022-09-17T11:58:33.417Z,11268.00
2022-09-17T11:59:33.361Z,9824.00
2022-09-17T12:00:33.327Z,8960.00
2022-09-17T12:01:33.373Z,8400.00
2022-09-17T12:02:33.289Z,8060.00
2022-09-17T12:03:33.228Z,8100.00
2022-09-17T12:04:33.195Z,8188.00
2022-09-17T12:05:33.164Z,10692.00
2022-09-17T12:06:33.138Z,11144.00
2022-09-17T12:07:33.168Z,11500.00
2022-09-17T12:08:33.060Z,12288.00
2022-09-17T12:09:33.022Z,12704.00
2022-09-17T12:10:32.986Z,15564.00
2022-09-17T12:11:32.980Z,11856.00
2022-09-17T12:12:49.004Z,11904.00
2022-09-17T12:13:32.882Z,13076.00
2022-09-17T12:14:32.850Z,14320.00
2022-09-17T12:15:32.810Z,14132.00
2022-09-17T12:16:32.815Z,19680.00
2022-09-17T12:17:32.760Z,18496.00
2022-09-17T12:18:33.554Z,20256.00
2022-09-17T12:19:32.670Z,30432.00
2022-09-17T12:20:32.633Z,29376.00
2022-09-17T12:21:32.601Z,29888.00
2022-09-17T12:22:35.020Z,23744.00
2022-09-17T12:23:32.626Z,22976.00
2022-09-17T12:24:32.501Z,17952.00